LFQM weather

Besançon-La Vèze Airport
Besançon/La Vèze, Franche-Comté, France

Public forecast

Using degrees Celsius for public forecast. Weather courtesy of forecast.io.

METAR (pilot weather report)

Closest report is Dole-Tavaux Airport, 28.3 nm (52.3 km) WSW. Retrieved 2019/07/22 06:30 UTC (25 minutes ago):

LFGJ 220630Z AUTO 03004KT 350V060 CAVOK 20/15 Q1023 NOSIG

TAF (pilot weather forecast)

Closest forecast is Luxeuil-Saint-Sauveur (BA 116) Air Base, 36.4 nm (67.5 km) NNE. Retrieved 2019/07/22 09:08 UTC (0 seconds ago):

TAF LFSX 220800Z 2209/2309 24008KT CAVOK